sensor_id;sensor_type;location;lat;lon;timestamp;P1;durP1;ratioP1;P2;durP2;ratioP2
48743;SDS011;34538;48.836;9.174;2023-05-14T00:00:42;10.73;;;7.55;;
48743;SDS011;34538;48.836;9.174;2023-05-14T00:03:08;9.90;;;7.28;;
48743;SDS011;34538;48.836;9.174;2023-05-14T00:05:35;11.20;;;7.47;;
48743;SDS011;34538;48.836;9.174;2023-05-14T00:08:02;11.02;;;6.90;;
48743;SDS011;34538;48.836;9.174;2023-05-14T00:10:29;10.93;;;7.78;;
48743;SDS011;34538;48.836;9.174;2023-05-14T00:12:56;11.30;;;7.85;;
48743;SDS011;34538;48.836;9.174;2023-05-14T00:15:22;11.10;;;7.22;;
48743;SDS011;34538;48.836;9.174;2023-05-14T00:17:51;11.15;;;7.43;;
48743;SDS011;34538;48.836;9.174;2023-05-14T00:20:17;11.23;;;7.97;;
48743;SDS011;34538;48.836;9.174;2023-05-14T00:22:44;9.52;;;6.68;;
48743;SDS011;34538;48.836;9.174;2023-05-14T00:25:11;9.65;;;6.50;;
48743;SDS011;34538;48.836;9.174;2023-05-14T00:27:38;9.30;;;7.03;;
48743;SDS011;34538;48.836;9.174;2023-05-14T00:30:05;9.18;;;6.53;;
48743;SDS011;34538;48.836;9.174;2023-05-14T00:32:32;10.95;;;7.40;;
48743;SDS011;34538;48.836;9.174;2023-05-14T00:35:01;10.90;;;6.78;;
48743;SDS011;34538;48.836;9.174;2023-05-14T00:37:28;10.25;;;7.40;;
48743;SDS011;34538;48.836;9.174;2023-05-14T00:39:55;10.25;;;7.78;;
48743;SDS011;34538;48.836;9.174;2023-05-14T00:42:22;10.50;;;7.18;;
48743;SDS011;34538;48.836;9.174;2023-05-14T00:44:50;10.23;;;7.45;;
48743;SDS011;34538;48.836;9.174;2023-05-14T00:47:17;9.18;;;6.88;;
48743;SDS011;34538;48.836;9.174;2023-05-14T00:49:45;10.43;;;7.55;;
48743;SDS011;34538;48.836;9.174;2023-05-14T00:52:13;10.80;;;7.65;;
48743;SDS011;34538;48.836;9.174;2023-05-14T00:54:40;11.55;;;7.90;;
48743;SDS011;34538;48.836;9.174;2023-05-14T00:57:07;10.93;;;7.05;;
48743;SDS011;34538;48.836;9.174;2023-05-14T00:59:34;11.52;;;7.45;;
48743;SDS011;34538;48.836;9.174;2023-05-14T01:02:01;10.57;;;7.88;;
48743;SDS011;34538;48.836;9.174;2023-05-14T01:04:28;13.30;;;7.78;;
48743;SDS011;34538;48.836;9.174;2023-05-14T01:06:58;11.65;;;7.63;;
48743;SDS011;34538;48.836;9.174;2023-05-14T01:09:36;12.30;;;7.45;;
48743;SDS011;34538;48.836;9.174;2023-05-14T01:12:10;10.88;;;7.32;;
48743;SDS011;34538;48.836;9.174;2023-05-14T01:14:49;10.25;;;7.35;;
48743;SDS011;34538;48.836;9.174;2023-05-14T01:17:21;12.13;;;8.13;;
48743;SDS011;34538;48.836;9.174;2023-05-14T01:19:50;9.82;;;7.53;;
48743;SDS011;34538;48.836;9.174;2023-05-14T01:22:18;11.63;;;8.23;;
48743;SDS011;34538;48.836;9.174;2023-05-14T01:24:45;11.32;;;8.10;;
48743;SDS011;34538;48.836;9.174;2023-05-14T01:27:14;14.88;;;8.00;;
48743;SDS011;34538;48.836;9.174;2023-05-14T01:29:48;12.50;;;8.10;;
48743;SDS011;34538;48.836;9.174;2023-05-14T01:32:19;11.02;;;7.57;;
48743;SDS011;34538;48.836;9.174;2023-05-14T01:34:50;12.15;;;8.35;;
48743;SDS011;34538;48.836;9.174;2023-05-14T01:37:19;12.30;;;8.55;;
48743;SDS011;34538;48.836;9.174;2023-05-14T01:39:47;11.27;;;7.53;;
48743;SDS011;34538;48.836;9.174;2023-05-14T01:42:15;12.95;;;8.63;;
48743;SDS011;34538;48.836;9.174;2023-05-14T01:44:42;13.02;;;8.40;;
48743;SDS011;34538;48.836;9.174;2023-05-14T01:47:09;13.50;;;8.00;;
48743;SDS011;34538;48.836;9.174;2023-05-14T01:49:36;14.85;;;9.00;;
48743;SDS011;34538;48.836;9.174;2023-05-14T01:52:03;11.70;;;7.80;;
48743;SDS011;34538;48.836;9.174;2023-05-14T01:54:32;14.18;;;8.93;;
48743;SDS011;34538;48.836;9.174;2023-05-14T01:56:59;10.82;;;7.95;;
48743;SDS011;34538;48.836;9.174;2023-05-14T01:59:27;15.63;;;8.55;;
48743;SDS011;34538;48.836;9.174;2023-05-14T02:01:54;12.55;;;8.10;;
48743;SDS011;34538;48.836;9.174;2023-05-14T02:04:21;11.10;;;7.28;;
48743;SDS011;34538;48.836;9.174;2023-05-14T02:06:48;11.57;;;7.88;;
48743;SDS011;34538;48.836;9.174;2023-05-14T02:09:15;11.07;;;7.80;;
48743;SDS011;34538;48.836;9.174;2023-05-14T02:11:43;13.35;;;7.47;;
48743;SDS011;34538;48.836;9.174;2023-05-14T02:14:10;13.82;;;8.10;;
48743;SDS011;34538;48.836;9.174;2023-05-14T02:16:37;12.57;;;8.05;;
48743;SDS011;34538;48.836;9.174;2023-05-14T02:19:04;13.10;;;8.55;;
48743;SDS011;34538;48.836;9.174;2023-05-14T02:21:30;11.70;;;7.85;;
48743;SDS011;34538;48.836;9.174;2023-05-14T02:23:57;11.48;;;8.07;;
48743;SDS011;34538;48.836;9.174;2023-05-14T02:26:24;13.80;;;8.43;;
48743;SDS011;34538;48.836;9.174;2023-05-14T02:28:52;12.68;;;8.27;;
48743;SDS011;34538;48.836;9.174;2023-05-14T02:31:19;11.38;;;7.85;;
48743;SDS011;34538;48.836;9.174;2023-05-14T02:33:46;11.70;;;8.13;;
48743;SDS011;34538;48.836;9.174;2023-05-14T02:36:12;12.68;;;8.82;;
48743;SDS011;34538;48.836;9.174;2023-05-14T02:38:39;13.50;;;8.43;;
48743;SDS011;34538;48.836;9.174;2023-05-14T02:41:06;13.50;;;9.05;;
48743;SDS011;34538;48.836;9.174;2023-05-14T02:43:33;13.00;;;8.35;;
48743;SDS011;34538;48.836;9.174;2023-05-14T02:46:01;12.65;;;8.70;;
48743;SDS011;34538;48.836;9.174;2023-05-14T02:48:28;11.65;;;7.85;;
48743;SDS011;34538;48.836;9.174;2023-05-14T02:50:54;11.88;;;8.43;;
48743;SDS011;34538;48.836;9.174;2023-05-14T02:53:21;12.00;;;7.72;;
48743;SDS011;34538;48.836;9.174;2023-05-14T02:55:48;11.43;;;8.77;;
48743;SDS011;34538;48.836;9.174;2023-05-14T02:58:15;11.63;;;8.10;;
48743;SDS011;34538;48.836;9.174;2023-05-14T03:00:42;13.55;;;9.23;;
48743;SDS011;34538;48.836;9.174;2023-05-14T03:03:10;15.15;;;9.60;;
48743;SDS011;34538;48.836;9.174;2023-05-14T03:05:37;14.85;;;9.50;;
48743;SDS011;34538;48.836;9.174;2023-05-14T03:08:04;13.15;;;9.30;;
48743;SDS011;34538;48.836;9.174;2023-05-14T03:10:30;14.18;;;9.35;;
48743;SDS011;34538;48.836;9.174;2023-05-14T03:12:57;15.18;;;8.95;;
48743;SDS011;34538;48.836;9.174;2023-05-14T03:15:24;14.77;;;9.18;;
48743;SDS011;34538;48.836;9.174;2023-05-14T03:17:51;14.35;;;9.05;;
48743;SDS011;34538;48.836;9.174;2023-05-14T03:20:19;12.82;;;8.55;;
48743;SDS011;34538;48.836;9.174;2023-05-14T03:22:47;15.77;;;9.43;;
48743;SDS011;34538;48.836;9.174;2023-05-14T03:25:14;13.60;;;8.82;;
48743;SDS011;34538;48.836;9.174;2023-05-14T03:27:40;12.70;;;8.57;;
48743;SDS011;34538;48.836;9.174;2023-05-14T03:30:08;12.00;;;7.50;;
48743;SDS011;34538;48.836;9.174;2023-05-14T03:32:35;13.23;;;9.10;;
48743;SDS011;34538;48.836;9.174;2023-05-14T03:35:03;11.13;;;8.05;;
48743;SDS011;34538;48.836;9.174;2023-05-14T03:37:32;13.50;;;8.48;;
48743;SDS011;34538;48.836;9.174;2023-05-14T03:39:59;11.75;;;7.85;;
48743;SDS011;34538;48.836;9.174;2023-05-14T03:42:25;13.43;;;8.50;;
48743;SDS011;34538;48.836;9.174;2023-05-14T03:44:53;11.77;;;8.18;;
48743;SDS011;34538;48.836;9.174;2023-05-14T03:47:19;11.60;;;7.53;;
48743;SDS011;34538;48.836;9.174;2023-05-14T03:49:46;11.02;;;7.75;;
48743;SDS011;34538;48.836;9.174;2023-05-14T03:52:14;10.50;;;7.35;;
48743;SDS011;34538;48.836;9.174;2023-05-14T03:54:44;11.63;;;7.78;;
48743;SDS011;34538;48.836;9.174;2023-05-14T03:57:10;15.02;;;8.15;;
48743;SDS011;34538;48.836;9.174;2023-05-14T03:59:37;11.30;;;8.00;;
48743;SDS011;34538;48.836;9.174;2023-05-14T04:02:04;10.82;;;7.45;;
48743;SDS011;34538;48.836;9.174;2023-05-14T04:04:31;10.02;;;7.35;;
48743;SDS011;34538;48.836;9.174;2023-05-14T04:06:57;12.38;;;8.18;;
48743;SDS011;34538;48.836;9.174;2023-05-14T04:09:27;12.35;;;7.60;;
48743;SDS011;34538;48.836;9.174;2023-05-14T04:11:56;10.02;;;6.85;;
48743;SDS011;34538;48.836;9.174;2023-05-14T04:14:23;11.38;;;8.25;;
48743;SDS011;34538;48.836;9.174;2023-05-14T04:16:50;10.75;;;7.30;;
48743;SDS011;34538;48.836;9.174;2023-05-14T04:19:17;12.05;;;7.80;;
48743;SDS011;34538;48.836;9.174;2023-05-14T04:21:43;11.40;;;7.70;;
48743;SDS011;34538;48.836;9.174;2023-05-14T04:24:10;12.05;;;7.35;;
48743;SDS011;34538;48.836;9.174;2023-05-14T04:26:37;10.25;;;7.35;;
48743;SDS011;34538;48.836;9.174;2023-05-14T04:29:05;11.50;;;7.40;;
48743;SDS011;34538;48.836;9.174;2023-05-14T04:31:32;11.63;;;7.90;;
48743;SDS011;34538;48.836;9.174;2023-05-14T04:33:59;9.10;;;6.80;;
48743;SDS011;34538;48.836;9.174;2023-05-14T04:36:26;11.93;;;7.82;;
48743;SDS011;34538;48.836;9.174;2023-05-14T04:38:52;12.70;;;8.07;;
48743;SDS011;34538;48.836;9.174;2023-05-14T04:41:20;13.13;;;8.13;;
48743;SDS011;34538;48.836;9.174;2023-05-14T04:43:48;12.00;;;7.80;;
48743;SDS011;34538;48.836;9.174;2023-05-14T04:46:16;10.63;;;7.32;;
48743;SDS011;34538;48.836;9.174;2023-05-14T04:48:43;11.75;;;7.53;;
48743;SDS011;34538;48.836;9.174;2023-05-14T04:51:10;11.35;;;7.40;;
48743;SDS011;34538;48.836;9.174;2023-05-14T04:53:37;15.18;;;9.80;;
48743;SDS011;34538;48.836;9.174;2023-05-14T04:56:04;16.08;;;9.82;;
48743;SDS011;34538;48.836;9.174;2023-05-14T04:58:31;14.18;;;9.07;;
48743;SDS011;34538;48.836;9.174;2023-05-14T05:00:58;14.10;;;9.07;;
48743;SDS011;34538;48.836;9.174;2023-05-14T05:03:27;11.07;;;7.88;;
48743;SDS011;34538;48.836;9.174;2023-05-14T05:05:53;12.10;;;7.72;;
48743;SDS011;34538;48.836;9.174;2023-05-14T05:08:20;15.70;;;9.82;;
48743;SDS011;34538;48.836;9.174;2023-05-14T05:10:47;11.27;;;7.28;;
48743;SDS011;34538;48.836;9.174;2023-05-14T05:13:14;13.10;;;7.78;;
48743;SDS011;34538;48.836;9.174;2023-05-14T05:15:41;10.38;;;7.32;;
48743;SDS011;34538;48.836;9.174;2023-05-14T05:18:08;9.70;;;6.28;;
48743;SDS011;34538;48.836;9.174;2023-05-14T05:20:36;9.18;;;6.63;;
48743;SDS011;34538;48.836;9.174;2023-05-14T05:23:03;11.02;;;6.78;;
48743;SDS011;34538;48.836;9.174;2023-05-14T05:25:29;10.25;;;6.03;;
48743;SDS011;34538;48.836;9.174;2023-05-14T05:27:56;10.65;;;7.43;;
48743;SDS011;34538;48.836;9.174;2023-05-14T05:30:23;9.00;;;6.05;;
48743;SDS011;34538;48.836;9.174;2023-05-14T05:32:50;9.88;;;6.22;;
48743;SDS011;34538;48.836;9.174;2023-05-14T05:35:17;9.18;;;6.50;;
48743;SDS011;34538;48.836;9.174;2023-05-14T05:37:45;9.68;;;6.05;;
48743;SDS011;34538;48.836;9.174;2023-05-14T05:40:12;9.00;;;6.30;;
48743;SDS011;34538;48.836;9.174;2023-05-14T05:42:40;9.88;;;6.10;;
48743;SDS011;34538;48.836;9.174;2023-05-14T05:45:07;8.45;;;5.65;;
48743;SDS011;34538;48.836;9.174;2023-05-14T05:47:34;11.70;;;6.20;;
48743;SDS011;34538;48.836;9.174;2023-05-14T05:50:01;9.18;;;6.35;;
48743;SDS011;34538;48.836;9.174;2023-05-14T05:52:27;8.80;;;6.20;;
48743;SDS011;34538;48.836;9.174;2023-05-14T05:54:56;10.32;;;6.10;;
48743;SDS011;34538;48.836;9.174;2023-05-14T05:57:22;10.50;;;6.30;;
48743;SDS011;34538;48.836;9.174;2023-05-14T05:59:51;9.50;;;5.95;;
48743;SDS011;34538;48.836;9.174;2023-05-14T06:02:18;9.48;;;5.93;;
48743;SDS011;34538;48.836;9.174;2023-05-14T06:04:45;10.15;;;5.97;;
48743;SDS011;34538;48.836;9.174;2023-05-14T06:07:11;8.43;;;5.60;;
48743;SDS011;34538;48.836;9.174;2023-05-14T06:09:38;8.48;;;6.00;;
48743;SDS011;34538;48.836;9.174;2023-05-14T06:12:07;10.27;;;7.00;;
48743;SDS011;34538;48.836;9.174;2023-05-14T06:14:34;12.32;;;6.57;;
48743;SDS011;34538;48.836;9.174;2023-05-14T06:17:01;11.40;;;6.97;;
48743;SDS011;34538;48.836;9.174;2023-05-14T06:19:27;9.80;;;6.85;;
48743;SDS011;34538;48.836;9.174;2023-05-14T06:21:54;9.57;;;6.32;;
48743;SDS011;34538;48.836;9.174;2023-05-14T06:24:21;10.50;;;6.22;;
48743;SDS011;34538;48.836;9.174;2023-05-14T06:26:48;10.25;;;6.75;;
48743;SDS011;34538;48.836;9.174;2023-05-14T06:29:16;9.98;;;6.55;;
48743;SDS011;34538;48.836;9.174;2023-05-14T06:31:43;9.48;;;6.00;;
48743;SDS011;34538;48.836;9.174;2023-05-14T06:34:10;10.55;;;7.10;;
48743;SDS011;34538;48.836;9.174;2023-05-14T06:36:37;11.05;;;6.25;;
48743;SDS011;34538;48.836;9.174;2023-05-14T06:39:04;10.40;;;6.35;;
48743;SDS011;34538;48.836;9.174;2023-05-14T06:41:31;12.13;;;6.45;;
48743;SDS011;34538;48.836;9.174;2023-05-14T06:43:57;10.40;;;6.68;;
48743;SDS011;34538;48.836;9.174;2023-05-14T06:46:26;11.23;;;6.40;;
48743;SDS011;34538;48.836;9.174;2023-05-14T06:48:52;9.18;;;6.03;;
48743;SDS011;34538;48.836;9.174;2023-05-14T06:51:19;9.68;;;6.32;;
48743;SDS011;34538;48.836;9.174;2023-05-14T06:53:46;8.77;;;6.05;;
48743;SDS011;34538;48.836;9.174;2023-05-14T06:56:13;13.52;;;6.45;;
48743;SDS011;34538;48.836;9.174;2023-05-14T06:58:40;11.10;;;6.72;;
48743;SDS011;34538;48.836;9.174;2023-05-14T07:01:07;9.80;;;6.57;;
48743;SDS011;34538;48.836;9.174;2023-05-14T07:03:35;9.30;;;6.20;;
48743;SDS011;34538;48.836;9.174;2023-05-14T07:06:02;9.60;;;6.53;;
48743;SDS011;34538;48.836;9.174;2023-05-14T07:08:28;9.45;;;6.43;;
48743;SDS011;34538;48.836;9.174;2023-05-14T07:10:55;9.88;;;7.13;;
48743;SDS011;34538;48.836;9.174;2023-05-14T07:13:22;10.25;;;6.65;;
48743;SDS011;34538;48.836;9.174;2023-05-14T07:15:50;8.55;;;6.15;;
48743;SDS011;34538;48.836;9.174;2023-05-14T07:18:19;9.05;;;6.22;;
48743;SDS011;34538;48.836;9.174;2023-05-14T07:20:47;8.43;;;5.57;;
48743;SDS011;34538;48.836;9.174;2023-05-14T07:23:14;11.82;;;7.00;;
48743;SDS011;34538;48.836;9.174;2023-05-14T07:25:41;10.35;;;7.25;;
48743;SDS011;34538;48.836;9.174;2023-05-14T07:28:08;11.50;;;6.88;;
48743;SDS011;34538;48.836;9.174;2023-05-14T07:30:35;10.25;;;7.00;;
48743;SDS011;34538;48.836;9.174;2023-05-14T07:33:02;9.82;;;6.80;;
48743;SDS011;34538;48.836;9.174;2023-05-14T07:35:28;11.45;;;7.10;;
48743;SDS011;34538;48.836;9.174;2023-05-14T07:37:57;10.82;;;6.85;;
48743;SDS011;34538;48.836;9.174;2023-05-14T07:40:23;10.77;;;6.82;;
48743;SDS011;34538;48.836;9.174;2023-05-14T07:42:50;10.45;;;6.85;;
48743;SDS011;34538;48.836;9.174;2023-05-14T07:45:17;12.85;;;7.28;;
48743;SDS011;34538;48.836;9.174;2023-05-14T07:47:44;10.95;;;7.32;;
48743;SDS011;34538;48.836;9.174;2023-05-14T07:50:11;12.25;;;6.95;;
48743;SDS011;34538;48.836;9.174;2023-05-14T07:52:38;11.35;;;7.57;;
48743;SDS011;34538;48.836;9.174;2023-05-14T07:55:06;10.70;;;7.10;;
48743;SDS011;34538;48.836;9.174;2023-05-14T07:57:33;10.63;;;7.15;;
48743;SDS011;34538;48.836;9.174;2023-05-14T08:00:01;9.80;;;6.90;;
48743;SDS011;34538;48.836;9.174;2023-05-14T08:02:37;10.95;;;6.80;;
48743;SDS011;34538;48.836;9.174;2023-05-14T08:05:04;11.82;;;7.35;;
48743;SDS011;34538;48.836;9.174;2023-05-14T08:07:32;12.40;;;7.25;;
48743;SDS011;34538;48.836;9.174;2023-05-14T08:09:58;12.07;;;6.78;;
48743;SDS011;34538;48.836;9.174;2023-05-14T08:12:27;9.77;;;6.70;;
48743;SDS011;34538;48.836;9.174;2023-05-14T08:14:53;12.05;;;7.82;;
48743;SDS011;34538;48.836;9.174;2023-05-14T08:17:20;9.15;;;6.35;;
48743;SDS011;34538;48.836;9.174;2023-05-14T08:19:47;10.52;;;6.88;;
48743;SDS011;34538;48.836;9.174;2023-05-14T08:22:14;9.80;;;6.70;;
48743;SDS011;34538;48.836;9.174;2023-05-14T08:24:41;11.13;;;6.93;;
48743;SDS011;34538;48.836;9.174;2023-05-14T08:27:08;10.23;;;6.60;;
48743;SDS011;34538;48.836;9.174;2023-05-14T08:29:36;10.40;;;6.53;;
48743;SDS011;34538;48.836;9.174;2023-05-14T08:32:03;9.30;;;6.75;;
48743;SDS011;34538;48.836;9.174;2023-05-14T08:34:30;12.15;;;7.20;;
48743;SDS011;34538;48.836;9.174;2023-05-14T08:36:57;10.95;;;6.75;;
48743;SDS011;34538;48.836;9.174;2023-05-14T08:39:24;10.05;;;7.13;;
48743;SDS011;34538;48.836;9.174;2023-05-14T08:41:51;10.65;;;7.00;;
48743;SDS011;34538;48.836;9.174;2023-05-14T08:44:18;11.23;;;7.75;;
48743;SDS011;34538;48.836;9.174;2023-05-14T08:49:20;10.43;;;7.03;;
48743;SDS011;34538;48.836;9.174;2023-05-14T08:51:54;10.85;;;7.32;;
48743;SDS011;34538;48.836;9.174;2023-05-14T08:54:21;10.70;;;7.28;;
48743;SDS011;34538;48.836;9.174;2023-05-14T08:56:50;10.52;;;7.25;;
48743;SDS011;34538;48.836;9.174;2023-05-14T08:59:17;11.38;;;7.85;;
48743;SDS011;34538;48.836;9.174;2023-05-14T09:01:45;9.90;;;7.05;;
48743;SDS011;34538;48.836;9.174;2023-05-14T09:04:15;11.35;;;7.75;;
48743;SDS011;34538;48.836;9.174;2023-05-14T09:06:46;12.35;;;7.65;;
48743;SDS011;34538;48.836;9.174;2023-05-14T09:09:15;10.85;;;7.47;;
48743;SDS011;34538;48.836;9.174;2023-05-14T09:11:42;11.77;;;7.88;;
48743;SDS011;34538;48.836;9.174;2023-05-14T09:14:11;9.82;;;6.97;;
48743;SDS011;34538;48.836;9.174;2023-05-14T09:16:37;10.48;;;7.30;;
48743;SDS011;34538;48.836;9.174;2023-05-14T09:19:06;10.20;;;6.95;;
48743;SDS011;34538;48.836;9.174;2023-05-14T09:21:34;11.63;;;7.88;;
48743;SDS011;34538;48.836;9.174;2023-05-14T09:24:02;11.65;;;7.65;;
48743;SDS011;34538;48.836;9.174;2023-05-14T09:26:30;12.25;;;7.03;;
48743;SDS011;34538;48.836;9.174;2023-05-14T09:28:58;9.40;;;6.70;;
48743;SDS011;34538;48.836;9.174;2023-05-14T09:31:26;11.20;;;7.40;;
48743;SDS011;34538;48.836;9.174;2023-05-14T09:33:52;10.02;;;6.63;;
48743;SDS011;34538;48.836;9.174;2023-05-14T09:36:19;10.00;;;6.75;;
48743;SDS011;34538;48.836;9.174;2023-05-14T09:38:47;10.32;;;7.25;;
48743;SDS011;34538;48.836;9.174;2023-05-14T09:41:14;10.60;;;7.40;;
48743;SDS011;34538;48.836;9.174;2023-05-14T09:43:41;10.13;;;7.63;;
48743;SDS011;34538;48.836;9.174;2023-05-14T09:46:08;9.27;;;6.65;;
48743;SDS011;34538;48.836;9.174;2023-05-14T09:48:35;12.57;;;6.93;;
48743;SDS011;34538;48.836;9.174;2023-05-14T09:51:01;10.95;;;6.97;;
48743;SDS011;34538;48.836;9.174;2023-05-14T09:53:29;10.35;;;6.60;;
48743;SDS011;34538;48.836;9.174;2023-05-14T09:55:59;10.23;;;7.03;;
48743;SDS011;34538;48.836;9.174;2023-05-14T09:58:26;9.60;;;6.95;;
48743;SDS011;34538;48.836;9.174;2023-05-14T10:00:53;8.80;;;6.20;;
48743;SDS011;34538;48.836;9.174;2023-05-14T10:03:23;10.15;;;6.47;;
48743;SDS011;34538;48.836;9.174;2023-05-14T10:05:51;9.75;;;5.95;;
48743;SDS011;34538;48.836;9.174;2023-05-14T10:08:19;8.20;;;5.75;;
48743;SDS011;34538;48.836;9.174;2023-05-14T10:10:50;8.57;;;6.10;;
48743;SDS011;34538;48.836;9.174;2023-05-14T10:13:21;8.82;;;5.95;;
48743;SDS011;34538;48.836;9.174;2023-05-14T10:15:54;8.63;;;6.07;;
48743;SDS011;34538;48.836;9.174;2023-05-14T10:18:25;6.70;;;4.57;;
48743;SDS011;34538;48.836;9.174;2023-05-14T10:20:56;8.57;;;5.45;;
48743;SDS011;34538;48.836;9.174;2023-05-14T10:23:29;7.80;;;5.40;;
48743;SDS011;34538;48.836;9.174;2023-05-14T10:25:56;7.28;;;4.60;;
48743;SDS011;34538;48.836;9.174;2023-05-14T10:28:24;12.30;;;5.82;;
48743;SDS011;34538;48.836;9.174;2023-05-14T10:30:52;9.65;;;5.72;;
48743;SDS011;34538;48.836;9.174;2023-05-14T10:33:19;8.30;;;5.82;;
48743;SDS011;34538;48.836;9.174;2023-05-14T10:35:50;7.97;;;6.00;;
48743;SDS011;34538;48.836;9.174;2023-05-14T10:38:21;8.63;;;6.07;;
48743;SDS011;34538;48.836;9.174;2023-05-14T10:40:48;8.77;;;5.82;;
48743;SDS011;34538;48.836;9.174;2023-05-14T10:43:15;9.68;;;5.40;;
48743;SDS011;34538;48.836;9.174;2023-05-14T10:45:45;8.45;;;5.30;;
48743;SDS011;34538;48.836;9.174;2023-05-14T10:48:12;9.75;;;6.10;;
48743;SDS011;34538;48.836;9.174;2023-05-14T10:50:40;11.32;;;6.65;;
48743;SDS011;34538;48.836;9.174;2023-05-14T10:53:09;8.85;;;5.78;;
48743;SDS011;34538;48.836;9.174;2023-05-14T10:55:37;7.95;;;5.70;;
48743;SDS011;34538;48.836;9.174;2023-05-14T10:58:06;10.13;;;6.10;;
48743;SDS011;34538;48.836;9.174;2023-05-14T11:00:32;8.13;;;5.72;;
48743;SDS011;34538;48.836;9.174;2023-05-14T11:03:02;7.43;;;5.10;;
48743;SDS011;34538;48.836;9.174;2023-05-14T11:05:30;8.75;;;5.50;;
48743;SDS011;34538;48.836;9.174;2023-05-14T11:07:57;7.28;;;4.93;;
48743;SDS011;34538;48.836;9.174;2023-05-14T11:10:27;7.07;;;5.05;;
48743;SDS011;34538;48.836;9.174;2023-05-14T11:12:54;8.13;;;5.55;;
48743;SDS011;34538;48.836;9.174;2023-05-14T11:15:22;8.40;;;5.07;;
48743;SDS011;34538;48.836;9.174;2023-05-14T11:17:51;7.47;;;5.80;;
48743;SDS011;34538;48.836;9.174;2023-05-14T11:20:20;8.60;;;5.80;;
48743;SDS011;34538;48.836;9.174;2023-05-14T11:22:47;7.82;;;5.35;;
48743;SDS011;34538;48.836;9.174;2023-05-14T11:25:15;7.55;;;4.97;;
48743;SDS011;34538;48.836;9.174;2023-05-14T11:27:43;8.00;;;5.45;;
48743;SDS011;34538;48.836;9.174;2023-05-14T11:30:11;6.78;;;4.88;;
48743;SDS011;34538;48.836;9.174;2023-05-14T11:32:39;8.23;;;5.05;;
48743;SDS011;34538;48.836;9.174;2023-05-14T11:35:07;7.53;;;4.78;;
48743;SDS011;34538;48.836;9.174;2023-05-14T11:37:35;7.75;;;5.38;;
48743;SDS011;34538;48.836;9.174;2023-05-14T11:40:05;7.40;;;4.28;;
48743;SDS011;34538;48.836;9.174;2023-05-14T11:42:34;6.82;;;4.63;;
48743;SDS011;34538;48.836;9.174;2023-05-14T11:45:02;7.32;;;4.53;;
48743;SDS011;34538;48.836;9.174;2023-05-14T11:47:29;5.68;;;4.35;;
48743;SDS011;34538;48.836;9.174;2023-05-14T11:49:56;5.95;;;3.97;;
48743;SDS011;34538;48.836;9.174;2023-05-14T11:52:24;5.18;;;3.83;;
48743;SDS011;34538;48.836;9.174;2023-05-14T11:54:52;6.45;;;4.25;;
48743;SDS011;34538;48.836;9.174;2023-05-14T11:57:19;5.82;;;4.30;;
48743;SDS011;34538;48.836;9.174;2023-05-14T11:59:47;5.65;;;3.83;;
48743;SDS011;34538;48.836;9.174;2023-05-14T12:02:15;5.97;;;4.13;;
48743;SDS011;34538;48.836;9.174;2023-05-14T12:04:43;6.03;;;4.30;;
48743;SDS011;34538;48.836;9.174;2023-05-14T12:07:15;8.80;;;5.07;;
48743;SDS011;34538;48.836;9.174;2023-05-14T12:09:42;7.47;;;4.72;;
48743;SDS011;34538;48.836;9.174;2023-05-14T12:14:42;6.45;;;4.30;;
48743;SDS011;34538;48.836;9.174;2023-05-14T12:17:11;6.28;;;4.68;;
48743;SDS011;34538;48.836;9.174;2023-05-14T12:19:39;6.55;;;4.30;;
48743;SDS011;34538;48.836;9.174;2023-05-14T12:22:07;6.82;;;4.57;;
48743;SDS011;34538;48.836;9.174;2023-05-14T12:24:34;6.80;;;4.85;;
48743;SDS011;34538;48.836;9.174;2023-05-14T12:27:01;7.25;;;4.75;;
48743;SDS011;34538;48.836;9.174;2023-05-14T12:29:33;5.53;;;3.95;;
48743;SDS011;34538;48.836;9.174;2023-05-14T12:32:02;6.35;;;4.55;;
48743;SDS011;34538;48.836;9.174;2023-05-14T12:34:33;6.32;;;3.80;;
48743;SDS011;34538;48.836;9.174;2023-05-14T12:37:00;6.63;;;4.18;;
48743;SDS011;34538;48.836;9.174;2023-05-14T12:39:27;6.90;;;3.80;;
48743;SDS011;34538;48.836;9.174;2023-05-14T12:41:53;3.78;;;3.10;;
48743;SDS011;34538;48.836;9.174;2023-05-14T12:44:20;7.03;;;3.95;;
48743;SDS011;34538;48.836;9.174;2023-05-14T12:46:49;4.95;;;3.70;;
48743;SDS011;34538;48.836;9.174;2023-05-14T12:49:15;5.05;;;3.72;;
48743;SDS011;34538;48.836;9.174;2023-05-14T12:51:42;6.03;;;4.20;;
48743;SDS011;34538;48.836;9.174;2023-05-14T12:54:10;5.60;;;3.90;;
48743;SDS011;34538;48.836;9.174;2023-05-14T12:56:39;6.13;;;3.53;;
48743;SDS011;34538;48.836;9.174;2023-05-14T12:59:06;5.53;;;3.60;;
48743;SDS011;34538;48.836;9.174;2023-05-14T13:01:33;4.47;;;3.40;;
48743;SDS011;34538;48.836;9.174;2023-05-14T13:04:03;4.38;;;3.20;;
48743;SDS011;34538;48.836;9.174;2023-05-14T13:06:30;4.70;;;3.42;;
48743;SDS011;34538;48.836;9.174;2023-05-14T13:08:57;4.93;;;3.10;;
48743;SDS011;34538;48.836;9.174;2023-05-14T13:11:25;5.57;;;3.50;;
48743;SDS011;34538;48.836;9.174;2023-05-14T13:13:54;4.78;;;3.60;;
48743;SDS011;34538;48.836;9.174;2023-05-14T13:16:21;5.40;;;3.50;;
48743;SDS011;34538;48.836;9.174;2023-05-14T13:18:47;4.47;;;3.17;;
48743;SDS011;34538;48.836;9.174;2023-05-14T13:21:15;4.53;;;3.40;;
48743;SDS011;34538;48.836;9.174;2023-05-14T13:23:42;4.45;;;3.35;;
48743;SDS011;34538;48.836;9.174;2023-05-14T13:26:09;4.43;;;3.28;;
48743;SDS011;34538;48.836;9.174;2023-05-14T13:28:36;5.45;;;3.50;;
48743;SDS011;34538;48.836;9.174;2023-05-14T13:31:04;5.35;;;3.42;;
48743;SDS011;34538;48.836;9.174;2023-05-14T13:33:33;5.13;;;3.40;;
48743;SDS011;34538;48.836;9.174;2023-05-14T13:36:00;4.60;;;3.50;;
48743;SDS011;34538;48.836;9.174;2023-05-14T13:38:29;4.40;;;3.28;;
48743;SDS011;34538;48.836;9.174;2023-05-14T13:40:56;4.57;;;3.67;;
48743;SDS011;34538;48.836;9.174;2023-05-14T13:43:26;4.95;;;3.80;;
48743;SDS011;34538;48.836;9.174;2023-05-14T13:45:54;6.38;;;3.60;;
48743;SDS011;34538;48.836;9.174;2023-05-14T13:48:21;4.47;;;3.40;;
48743;SDS011;34538;48.836;9.174;2023-05-14T13:50:48;4.55;;;3.10;;
48743;SDS011;34538;48.836;9.174;2023-05-14T13:53:16;5.72;;;3.35;;
48743;SDS011;34538;48.836;9.174;2023-05-14T13:55:44;5.00;;;2.95;;
48743;SDS011;34538;48.836;9.174;2023-05-14T13:58:11;3.47;;;2.80;;
48743;SDS011;34538;48.836;9.174;2023-05-14T14:00:38;3.78;;;2.85;;
48743;SDS011;34538;48.836;9.174;2023-05-14T14:03:05;3.25;;;2.40;;
48743;SDS011;34538;48.836;9.174;2023-05-14T14:05:33;3.42;;;2.40;;
48743;SDS011;34538;48.836;9.174;2023-05-14T14:08:00;3.15;;;2.60;;
48743;SDS011;34538;48.836;9.174;2023-05-14T14:10:27;4.28;;;2.80;;
48743;SDS011;34538;48.836;9.174;2023-05-14T14:12:55;3.22;;;2.40;;
48743;SDS011;34538;48.836;9.174;2023-05-14T14:15:22;4.15;;;2.70;;
48743;SDS011;34538;48.836;9.174;2023-05-14T14:17:48;4.35;;;3.03;;
48743;SDS011;34538;48.836;9.174;2023-05-14T14:20:16;5.05;;;3.17;;
48743;SDS011;34538;48.836;9.174;2023-05-14T14:22:43;3.47;;;2.70;;
48743;SDS011;34538;48.836;9.174;2023-05-14T14:25:10;4.45;;;3.03;;
48743;SDS011;34538;48.836;9.174;2023-05-14T14:27:37;3.90;;;3.13;;
48743;SDS011;34538;48.836;9.174;2023-05-14T14:30:07;4.53;;;2.97;;
48743;SDS011;34538;48.836;9.174;2023-05-14T14:32:40;4.05;;;2.70;;
48743;SDS011;34538;48.836;9.174;2023-05-14T14:35:08;5.00;;;3.03;;
48743;SDS011;34538;48.836;9.174;2023-05-14T14:37:35;4.70;;;3.00;;
48743;SDS011;34538;48.836;9.174;2023-05-14T14:40:02;2.95;;;2.28;;
48743;SDS011;34538;48.836;9.174;2023-05-14T14:42:31;2.67;;;2.13;;
48743;SDS011;34538;48.836;9.174;2023-05-14T14:44:58;3.47;;;2.38;;
48743;SDS011;34538;48.836;9.174;2023-05-14T14:47:26;5.00;;;2.60;;